createdAt,value
2022-11-08T00:00:02.397Z,1003.1877455230439
2022-11-08T00:15:02.041Z,1003.2674729772093
2022-11-08T00:30:01.783Z,1003.2458281846687
2022-11-08T00:45:02.431Z,1003.1894617074894
2022-11-08T01:00:02.088Z,1003.1691698447571
2022-11-08T01:15:01.779Z,1003.0689676304245
2022-11-08T01:30:02.457Z,1002.9804174397544
2022-11-08T01:45:02.123Z,1002.9600269507434
2022-11-08T02:00:01.772Z,1002.8269661614311
2022-11-08T02:15:02.417Z,1002.7528667605403
2022-11-08T02:30:02.076Z,1002.7507225310452
2022-11-08T02:45:01.754Z,1002.5283844170091
2022-11-08T03:00:02.383Z,1002.4005173464216
2022-11-08T03:15:01.975Z,1002.3130622457679
2022-11-08T03:30:01.751Z,1002.2232458055679
2022-11-08T03:45:02.377Z,1002.2250311526956
2022-11-08T04:00:01.983Z,1002.2476009209117
2022-11-08T04:15:01.662Z,1002.0383826058387
2022-11-08T04:30:02.336Z,1002.0261028809069
2022-11-08T04:45:01.948Z,1001.8461063318847
2022-11-08T05:00:01.651Z,1001.6988193903577
2022-11-08T05:15:02.328Z,1001.5099627706331
2022-11-08T05:30:02.512Z,1001.3876493941403
2022-11-08T05:45:08.151Z,1001.2208287919448
2022-11-08T06:00:02.147Z,1001.0301027814531
2022-11-08T06:15:01.768Z,1000.8519200209514
2022-11-08T06:30:02.464Z,1000.7960950523
2022-11-08T06:45:02.102Z,1000.6517450455882
2022-11-08T07:00:01.791Z,1000.4441719500005
2022-11-08T07:15:02.463Z,1000.4401353392547
2022-11-08T07:30:02.181Z,1000.2652339756817
2022-11-08T07:45:01.886Z,1000.0143923399289
2022-11-08T08:00:07.452Z,1000.2033928813153
2022-11-08T08:15:01.595Z,1000.1720854342387
2022-11-08T08:30:02.253Z,1000.0031403238371
2022-11-08T08:45:01.968Z,999.9719022765693
2022-11-08T09:15:02.324Z,999.8004229710373
2022-11-08T09:30:01.999Z,999.4787309904062
2022-11-08T09:45:01.638Z,999.4650249936183
2022-11-08T10:00:02.309Z,999.3433954818832
2022-11-08T10:15:01.983Z,999.5112719539441
2022-11-08T10:30:01.673Z,999.378381948358
2022-11-08T10:45:02.329Z,999.3563480931292
2022-11-08T11:00:01.980Z,999.1045624891603
2022-11-08T11:15:01.644Z,998.9315890692613
2022-11-08T11:30:02.370Z,998.764862787575
2022-11-08T11:45:02.036Z,998.7737708253198
2022-11-08T12:00:01.709Z,998.6833058844783
2022-11-08T12:15:02.380Z,998.7343244371316
2022-11-08T12:30:02.141Z,998.7479208457911
2022-11-08T12:45:01.764Z,998.6053679710647
2022-11-08T13:00:02.433Z,998.4629660574991
2022-11-08T13:15:02.096Z,998.4335385221249
2022-11-08T13:30:01.854Z,998.5043026663614
2022-11-08T13:45:02.578Z,998.2655115098534
2022-11-08T14:00:02.276Z,998.265581774072
2022-11-08T14:15:01.924Z,998.1418360560175
2022-11-08T14:30:01.668Z,998.0151862158959
2022-11-08T14:45:02.359Z,998.107262606305
2022-11-08T15:00:02.077Z,997.8820045477587
2022-11-08T15:15:01.786Z,998.0926643810034
2022-11-08T15:30:02.483Z,997.8342545056474
2022-11-08T15:45:02.135Z,997.9620035271306
2022-11-08T16:00:01.833Z,997.8777990939253
2022-11-08T16:15:02.564Z,997.7233373299631
2022-11-08T16:30:02.239Z,997.6790472452224
2022-11-08T16:45:01.937Z,997.8251552709261
2022-11-08T17:00:01.601Z,997.8622589750795
2022-11-08T17:15:02.234Z,997.8875086680747
2022-11-08T17:30:01.969Z,997.8443130092805
2022-11-08T17:45:01.643Z,997.9120772255773
2022-11-08T18:00:02.309Z,997.8334048766612
2022-11-08T18:15:02.095Z,998.1446181861879
2022-11-08T18:30:01.757Z,998.021942035469
2022-11-08T18:45:02.426Z,997.9843902412968
2022-11-08T19:00:02.032Z,998.0025677434584
2022-11-08T19:15:01.741Z,997.9854584602003
2022-11-08T19:30:02.415Z,997.9520965041287
2022-11-08T19:45:02.089Z,998.0213839500248
2022-11-08T20:00:01.722Z,998.1450460037307
2022-11-08T20:15:02.369Z,998.0424489838157
2022-11-08T20:30:02.052Z,998.2744468147237
2022-11-08T20:45:01.704Z,998.2877387606105
2022-11-08T21:00:12.478Z,998.2992512161899
2022-11-08T21:15:02.052Z,998.3592235380863
2022-11-08T21:30:01.692Z,998.3153370551577
2022-11-08T21:45:02.338Z,998.3617080147071
2022-11-08T22:00:01.975Z,998.2646630244936
2022-11-08T22:15:01.631Z,998.2977434529446
2022-11-08T22:30:02.257Z,998.3619967851041
2022-11-08T22:45:01.915Z,998.247615473081
2022-11-08T23:00:01.747Z,998.2824773245113
2022-11-08T23:15:02.472Z,998.3532309497881
2022-11-08T23:30:02.144Z,998.3609842961374
2022-11-08T23:45:01.860Z,998.1728373007863
